sensor_id;sensor_type;location;lat;lon;timestamp;pressure;altitude;pressure_sealevel;temperature;humidity
74529;BME280;63009;52.584;5.932;2023-04-24T00:00:03;99720.75;;;9.76;100.00
74529;BME280;63009;52.584;5.932;2023-04-24T00:02:32;99715.47;;;9.76;100.00
74529;BME280;63009;52.584;5.932;2023-04-24T00:04:58;99729.38;;;9.78;100.00
74529;BME280;63009;52.584;5.932;2023-04-24T00:07:30;99730.00;;;9.82;100.00
74529;BME280;63009;52.584;5.932;2023-04-24T00:09:56;99728.53;;;9.78;100.00
74529;BME280;63009;52.584;5.932;2023-04-24T00:12:22;99731.78;;;9.81;100.00
74529;BME280;63009;52.584;5.932;2023-04-24T00:14:47;99729.25;;;9.80;100.00
74529;BME280;63009;52.584;5.932;2023-04-24T00:17:12;99725.66;;;9.81;100.00
74529;BME280;63009;52.584;5.932;2023-04-24T00:19:38;99732.47;;;9.72;100.00
74529;BME280;63009;52.584;5.932;2023-04-24T00:22:03;99721.16;;;9.70;100.00
74529;BME280;63009;52.584;5.932;2023-04-24T00:24:28;99722.41;;;9.77;100.00
74529;BME280;63009;52.584;5.932;2023-04-24T00:26:54;99720.75;;;9.76;100.00
74529;BME280;63009;52.584;5.932;2023-04-24T00:29:19;99729.06;;;9.70;100.00
74529;BME280;63009;52.584;5.932;2023-04-24T00:31:45;99721.63;;;9.64;100.00
74529;BME280;63009;52.584;5.932;2023-04-24T00:34:10;99723.06;;;9.68;100.00
74529;BME280;63009;52.584;5.932;2023-04-24T00:36:37;99715.00;;;9.59;100.00
74529;BME280;63009;52.584;5.932;2023-04-24T00:39:02;99714.66;;;9.63;100.00
74529;BME280;63009;52.584;5.932;2023-04-24T00:41:27;99728.94;;;9.61;100.00
74529;BME280;63009;52.584;5.932;2023-04-24T00:43:53;99709.50;;;9.62;100.00
74529;BME280;63009;52.584;5.932;2023-04-24T00:46:18;99742.50;;;9.67;100.00
74529;BME280;63009;52.584;5.932;2023-04-24T00:48:44;99722.97;;;9.70;100.00
74529;BME280;63009;52.584;5.932;2023-04-24T00:51:10;99729.91;;;9.71;100.00
74529;BME280;63009;52.584;5.932;2023-04-24T00:53:35;99735.31;;;9.69;100.00
74529;BME280;63009;52.584;5.932;2023-04-24T00:56:01;99726.44;;;9.70;100.00
74529;BME280;63009;52.584;5.932;2023-04-24T00:58:27;99715.38;;;9.65;100.00
74529;BME280;63009;52.584;5.932;2023-04-24T01:00:53;99718.16;;;9.64;100.00
74529;BME280;63009;52.584;5.932;2023-04-24T01:03:21;99730.25;;;9.66;100.00
74529;BME280;63009;52.584;5.932;2023-04-24T01:05:48;99725.53;;;9.71;100.00
74529;BME280;63009;52.584;5.932;2023-04-24T01:08:14;99732.06;;;9.66;100.00
74529;BME280;63009;52.584;5.932;2023-04-24T01:10:41;99725.88;;;9.54;100.00
74529;BME280;63009;52.584;5.932;2023-04-24T01:13:09;99728.41;;;9.56;100.00
74529;BME280;63009;52.584;5.932;2023-04-24T01:15:35;99724.63;;;9.47;100.00
74529;BME280;63009;52.584;5.932;2023-04-24T01:18:00;99725.59;;;9.46;100.00
74529;BME280;63009;52.584;5.932;2023-04-24T01:20:26;99724.41;;;9.50;100.00
74529;BME280;63009;52.584;5.932;2023-04-24T01:22:52;99738.13;;;9.42;100.00
74529;BME280;63009;52.584;5.932;2023-04-24T01:25:18;99713.28;;;9.34;100.00
74529;BME280;63009;52.584;5.932;2023-04-24T01:27:44;99735.19;;;9.47;100.00
74529;BME280;63009;52.584;5.932;2023-04-24T01:30:10;99727.28;;;9.47;100.00
74529;BME280;63009;52.584;5.932;2023-04-24T01:32:36;99726.00;;;9.40;100.00
74529;BME280;63009;52.584;5.932;2023-04-24T01:35:02;99738.13;;;9.42;100.00
74529;BME280;63009;52.584;5.932;2023-04-24T01:37:27;99719.41;;;9.34;100.00
74529;BME280;63009;52.584;5.932;2023-04-24T01:39:52;99734.75;;;9.40;100.00
74529;BME280;63009;52.584;5.932;2023-04-24T01:42:18;99731.19;;;9.41;100.00
74529;BME280;63009;52.584;5.932;2023-04-24T01:44:44;99721.91;;;9.36;100.00
74529;BME280;63009;52.584;5.932;2023-04-24T01:47:09;99736.69;;;9.38;100.00
74529;BME280;63009;52.584;5.932;2023-04-24T01:49:37;99736.69;;;9.38;100.00
74529;BME280;63009;52.584;5.932;2023-04-24T01:52:03;99739.53;;;9.35;100.00
74529;BME280;63009;52.584;5.932;2023-04-24T01:54:29;99737.63;;;9.37;100.00
74529;BME280;63009;52.584;5.932;2023-04-24T01:56:55;99746.03;;;9.42;100.00
74529;BME280;63009;52.584;5.932;2023-04-24T01:59:20;99728.25;;;9.33;100.00
74529;BME280;63009;52.584;5.932;2023-04-24T02:01:46;99736.78;;;9.37;100.00
74529;BME280;63009;52.584;5.932;2023-04-24T02:04:12;99730.56;;;9.38;100.00
74529;BME280;63009;52.584;5.932;2023-04-24T02:06:37;99731.28;;;9.40;100.00
74529;BME280;63009;52.584;5.932;2023-04-24T02:09:03;99731.50;;;9.37;100.00
74529;BME280;63009;52.584;5.932;2023-04-24T02:11:28;99728.88;;;9.37;100.00
74529;BME280;63009;52.584;5.932;2023-04-24T02:13:53;99723.00;;;9.33;100.00
74529;BME280;63009;52.584;5.932;2023-04-24T02:16:19;99731.28;;;9.40;100.00
74529;BME280;63009;52.584;5.932;2023-04-24T02:18:44;99730.91;;;9.33;100.00
74529;BME280;63009;52.584;5.932;2023-04-24T02:21:10;99730.78;;;9.35;100.00
74529;BME280;63009;52.584;5.932;2023-04-24T02:23:35;99732.56;;;9.34;100.00
74529;BME280;63009;52.584;5.932;2023-04-24T02:26:00;99720.88;;;9.26;100.00
74529;BME280;63009;52.584;5.932;2023-04-24T02:28:26;99729.94;;;9.34;100.00
74529;BME280;63009;52.584;5.932;2023-04-24T02:30:51;99737.41;;;9.40;100.00
74529;BME280;63009;52.584;5.932;2023-04-24T02:33:16;99736.25;;;9.44;100.00
74529;BME280;63009;52.584;5.932;2023-04-24T02:35:41;99731.28;;;9.40;100.00
74529;BME280;63009;52.584;5.932;2023-04-24T02:38:07;99725.91;;;9.41;100.00
74529;BME280;63009;52.584;5.932;2023-04-24T02:40:32;99712.94;;;9.38;100.00
74529;BME280;63009;52.584;5.932;2023-04-24T02:42:57;99716.41;;;9.39;100.00
74529;BME280;63009;52.584;5.932;2023-04-24T02:45:23;99723.91;;;9.45;100.00
74529;BME280;63009;52.584;5.932;2023-04-24T02:47:48;99737.81;;;9.47;100.00
74529;BME280;63009;52.584;5.932;2023-04-24T02:50:13;99732.44;;;9.48;100.00
74529;BME280;63009;52.584;5.932;2023-04-24T02:52:38;99732.56;;;9.47;100.00
74529;BME280;63009;52.584;5.932;2023-04-24T02:55:04;99744.06;;;9.46;100.00
74529;BME280;63009;52.584;5.932;2023-04-24T02:57:30;99744.16;;;9.44;100.00
74529;BME280;63009;52.584;5.932;2023-04-24T02:59:55;99753.34;;;9.39;100.00
74529;BME280;63009;52.584;5.932;2023-04-24T03:02:20;99755.13;;;9.38;100.00
74529;BME280;63009;52.584;5.932;2023-04-24T03:04:46;99748.09;;;9.26;100.00
74529;BME280;63009;52.584;5.932;2023-04-24T03:07:13;99745.56;;;9.25;100.00
74529;BME280;63009;52.584;5.932;2023-04-24T03:09:39;99750.00;;;9.11;100.00
74529;BME280;63009;52.584;5.932;2023-04-24T03:12:06;99764.25;;;9.09;100.00
74529;BME280;63009;52.584;5.932;2023-04-24T03:14:32;99766.25;;;9.05;100.00
74529;BME280;63009;52.584;5.932;2023-04-24T03:16:57;99763.84;;;9.02;100.00
74529;BME280;63009;52.584;5.932;2023-04-24T03:19:22;99770.13;;;9.00;100.00
74529;BME280;63009;52.584;5.932;2023-04-24T03:21:48;99769.72;;;8.93;100.00
74529;BME280;63009;52.584;5.932;2023-04-24T03:24:13;99777.84;;;8.90;100.00
74529;BME280;63009;52.584;5.932;2023-04-24T03:26:39;99759.09;;;8.82;100.00
74529;BME280;63009;52.584;5.932;2023-04-24T03:29:04;99756.44;;;8.69;100.00
74529;BME280;63009;52.584;5.932;2023-04-24T03:31:29;99769.38;;;8.72;100.00
74529;BME280;63009;52.584;5.932;2023-04-24T03:33:54;99761.69;;;8.69;100.00
74529;BME280;63009;52.584;5.932;2023-04-24T03:36:20;99790.03;;;8.66;100.00
74529;BME280;63009;52.584;5.932;2023-04-24T03:38:45;99754.84;;;8.54;100.00
74529;BME280;63009;52.584;5.932;2023-04-24T03:41:11;99783.09;;;8.65;100.00
74529;BME280;63009;52.584;5.932;2023-04-24T03:43:36;99777.19;;;8.61;100.00
74529;BME280;63009;52.584;5.932;2023-04-24T03:46:03;99774.25;;;8.66;100.00
74529;BME280;63009;52.584;5.932;2023-04-24T03:48:28;99768.47;;;8.60;100.00
74529;BME280;63009;52.584;5.932;2023-04-24T03:50:54;99775.28;;;8.50;100.00
74529;BME280;63009;52.584;5.932;2023-04-24T03:53:19;99792.16;;;8.60;100.00
74529;BME280;63009;52.584;5.932;2023-04-24T03:55:45;99807.97;;;8.60;100.00
74529;BME280;63009;52.584;5.932;2023-04-24T03:58:10;99797.44;;;8.60;100.00
74529;BME280;63009;52.584;5.932;2023-04-24T04:00:36;99795.91;;;8.56;100.00
74529;BME280;63009;52.584;5.932;2023-04-24T04:03:02;99804.56;;;8.58;100.00
74529;BME280;63009;52.584;5.932;2023-04-24T04:05:28;99814.06;;;8.61;100.00
74529;BME280;63009;52.584;5.932;2023-04-24T04:07:53;99815.03;;;8.60;100.00
74529;BME280;63009;52.584;5.932;2023-04-24T04:10:18;99802.25;;;8.54;100.00
74529;BME280;63009;52.584;5.932;2023-04-24T04:12:44;99810.78;;;8.57;100.00
74529;BME280;63009;52.584;5.932;2023-04-24T04:15:09;99800.66;;;8.51;100.00
74529;BME280;63009;52.584;5.932;2023-04-24T04:17:35;99827.88;;;8.65;100.00
74529;BME280;63009;52.584;5.932;2023-04-24T04:20:00;99816.25;;;8.54;100.00
74529;BME280;63009;52.584;5.932;2023-04-24T04:22:26;99829.88;;;8.61;100.00
74529;BME280;63009;52.584;5.932;2023-04-24T04:24:51;99834.72;;;8.67;100.00
74529;BME280;63009;52.584;5.932;2023-04-24T04:27:16;99834.72;;;8.67;100.00
74529;BME280;63009;52.584;5.932;2023-04-24T04:29:44;99837.34;;;8.67;100.00
74529;BME280;63009;52.584;5.932;2023-04-24T04:32:09;99838.75;;;8.73;100.00
74529;BME280;63009;52.584;5.932;2023-04-24T04:34:34;99846.44;;;8.76;100.00
74529;BME280;63009;52.584;5.932;2023-04-24T04:36:59;99860.25;;;8.79;100.00
74529;BME280;63009;52.584;5.932;2023-04-24T04:39:26;99852.25;;;8.81;100.00
74529;BME280;63009;52.584;5.932;2023-04-24T04:41:53;99852.59;;;8.89;100.00
74529;BME280;63009;52.584;5.932;2023-04-24T04:44:19;99865.53;;;8.92;100.00
74529;BME280;63009;52.584;5.932;2023-04-24T04:46:44;99872.50;;;8.93;100.00
74529;BME280;63009;52.584;5.932;2023-04-24T04:49:09;99880.19;;;8.96;100.00
74529;BME280;63009;52.584;5.932;2023-04-24T04:51:36;99874.63;;;8.88;100.00
74529;BME280;63009;52.584;5.932;2023-04-24T04:54:01;99876.06;;;8.79;100.00
74529;BME280;63009;52.584;5.932;2023-04-24T04:56:26;99872.06;;;8.74;100.00
74529;BME280;63009;52.584;5.932;2023-04-24T04:58:51;99872.78;;;8.76;100.00
74529;BME280;63009;52.584;5.932;2023-04-24T05:01:17;99857.38;;;8.70;100.00
74529;BME280;63009;52.584;5.932;2023-04-24T05:03:42;99884.28;;;8.75;100.00
74529;BME280;63009;52.584;5.932;2023-04-24T05:06:08;99906.38;;;8.72;100.00
74529;BME280;63009;52.584;5.932;2023-04-24T05:08:33;99886.75;;;8.63;100.00
74529;BME280;63009;52.584;5.932;2023-04-24T05:10:58;99897.34;;;8.76;100.00
74529;BME280;63009;52.584;5.932;2023-04-24T05:13:23;99900.81;;;8.77;100.00
74529;BME280;63009;52.584;5.932;2023-04-24T05:15:49;99906.22;;;8.88;100.00
74529;BME280;63009;52.584;5.932;2023-04-24T05:18:14;99901.34;;;8.82;100.00
74529;BME280;63009;52.584;5.932;2023-04-24T05:20:40;99914.66;;;8.93;100.00
74529;BME280;63009;52.584;5.932;2023-04-24T05:23:08;99910.25;;;8.93;100.00
74529;BME280;63009;52.584;5.932;2023-04-24T05:25:33;99925.63;;;9.00;100.00
74529;BME280;63009;52.584;5.932;2023-04-24T05:28:00;99895.84;;;8.72;100.00
74529;BME280;63009;52.584;5.932;2023-04-24T05:30:25;99936.16;;;9.00;100.00
74529;BME280;63009;52.584;5.932;2023-04-24T05:32:51;99941.84;;;8.93;100.00
74529;BME280;63009;52.584;5.932;2023-04-24T05:35:16;99928.34;;;8.85;100.00
74529;BME280;63009;52.584;5.932;2023-04-24T05:37:41;99943.75;;;8.91;100.00
74529;BME280;63009;52.584;5.932;2023-04-24T05:40:07;99952.19;;;8.97;100.00
74529;BME280;63009;52.584;5.932;2023-04-24T05:42:33;99945.13;;;8.97;100.00
74529;BME280;63009;52.584;5.932;2023-04-24T05:44:58;99962.97;;;9.06;100.00
74529;BME280;63009;52.584;5.932;2023-04-24T05:47:23;99959.88;;;9.00;100.00
74529;BME280;63009;52.584;5.932;2023-04-24T05:49:49;99959.25;;;8.96;100.00
74529;BME280;63009;52.584;5.932;2023-04-24T05:52:14;99966.53;;;8.92;100.00
74529;BME280;63009;52.584;5.932;2023-04-24T05:54:40;99964.19;;;8.88;100.00
74529;BME280;63009;52.584;5.932;2023-04-24T05:57:05;99971.59;;;8.96;100.00
74529;BME280;63009;52.584;5.932;2023-04-24T05:59:33;99980.13;;;8.99;100.00
74529;BME280;63009;52.584;5.932;2023-04-24T06:01:59;99988.59;;;9.04;100.00
74529;BME280;63009;52.584;5.932;2023-04-24T06:04:25;99996.41;;;9.06;100.00
74529;BME280;63009;52.584;5.932;2023-04-24T06:06:50;99989.44;;;9.05;100.00
74529;BME280;63009;52.584;5.932;2023-04-24T06:09:20;99987.66;;;9.05;100.00
74529;BME280;63009;52.584;5.932;2023-04-24T06:11:46;99998.41;;;9.02;100.00
74529;BME280;63009;52.584;5.932;2023-04-24T06:14:11;100002.81;;;9.02;100.00
74529;BME280;63009;52.584;5.932;2023-04-24T06:16:36;99995.94;;;8.99;100.00
74529;BME280;63009;52.584;5.932;2023-04-24T06:19:01;99996.72;;;9.01;100.00
74529;BME280;63009;52.584;5.932;2023-04-24T06:21:27;99998.69;;;8.98;100.00
74529;BME280;63009;52.584;5.932;2023-04-24T06:23:52;100019.56;;;9.01;100.00
74529;BME280;63009;52.584;5.932;2023-04-24T06:26:17;100022.28;;;8.99;100.00
74529;BME280;63009;52.584;5.932;2023-04-24T06:28:43;100028.13;;;9.04;100.00
74529;BME280;63009;52.584;5.932;2023-04-24T06:31:08;100014.38;;;8.99;100.00
74529;BME280;63009;52.584;5.932;2023-04-24T06:33:33;100025.78;;;9.00;100.00
74529;BME280;63009;52.584;5.932;2023-04-24T06:35:59;100033.88;;;8.97;100.00
74529;BME280;63009;52.584;5.932;2023-04-24T06:38:24;100023.75;;;8.90;100.00
74529;BME280;63009;52.584;5.932;2023-04-24T06:40:49;100032.94;;;8.98;100.00
74529;BME280;63009;52.584;5.932;2023-04-24T06:43:15;100025.66;;;8.88;100.00
74529;BME280;63009;52.584;5.932;2023-04-24T06:45:40;100041.59;;;9.00;100.00
74529;BME280;63009;52.584;5.932;2023-04-24T06:48:05;100041.69;;;8.98;100.00
74529;BME280;63009;52.584;5.932;2023-04-24T06:50:30;100047.81;;;8.99;100.00
74529;BME280;63009;52.584;5.932;2023-04-24T06:52:56;100038.41;;;8.95;100.00
74529;BME280;63009;52.584;5.932;2023-04-24T06:55:21;100034.19;;;8.92;100.00
74529;BME280;63009;52.584;5.932;2023-04-24T06:57:46;100045.38;;;8.96;100.00
74529;BME280;63009;52.584;5.932;2023-04-24T07:00:12;100055.72;;;8.99;100.00
74529;BME280;63009;52.584;5.932;2023-04-24T07:02:37;100056.75;;;8.96;100.00
74529;BME280;63009;52.584;5.932;2023-04-24T07:05:04;100053.50;;;8.92;100.00
74529;BME280;63009;52.584;5.932;2023-04-24T07:07:29;100054.13;;;8.96;100.00
74529;BME280;63009;52.584;5.932;2023-04-24T07:09:55;100060.97;;;8.99;100.00
74529;BME280;63009;52.584;5.932;2023-04-24T07:12:21;100070.41;;;9.03;100.00
74529;BME280;63009;52.584;5.932;2023-04-24T07:14:47;100071.72;;;8.96;100.00
74529;BME280;63009;52.584;5.932;2023-04-24T07:17:12;100069.28;;;8.92;100.00
74529;BME280;63009;52.584;5.932;2023-04-24T07:19:38;100084.91;;;8.96;100.00
74529;BME280;63009;52.584;5.932;2023-04-24T07:22:03;100067.97;;;8.85;100.00
74529;BME280;63009;52.584;5.932;2023-04-24T07:24:29;100088.97;;;9.01;100.00
74529;BME280;63009;52.584;5.932;2023-04-24T07:26:57;100084.25;;;8.92;100.00
74529;BME280;63009;52.584;5.932;2023-04-24T07:29:22;100097.34;;;8.93;100.00
74529;BME280;63009;52.584;5.932;2023-04-24T07:31:47;100089.38;;;8.81;100.00
74529;BME280;63009;52.584;5.932;2023-04-24T07:34:13;100106.38;;;8.89;100.00
74529;BME280;63009;52.584;5.932;2023-04-24T07:36:38;100100.47;;;8.72;100.00
74529;BME280;63009;52.584;5.932;2023-04-24T07:39:04;100090.31;;;8.66;100.00
74529;BME280;63009;52.584;5.932;2023-04-24T07:41:29;100102.00;;;8.61;100.00
74529;BME280;63009;52.584;5.932;2023-04-24T07:43:55;100133.41;;;8.79;100.00
74529;BME280;63009;52.584;5.932;2023-04-24T07:46:20;100153.75;;;8.77;100.00
74529;BME280;63009;52.584;5.932;2023-04-24T07:48:46;100137.09;;;8.62;100.00
74529;BME280;63009;52.584;5.932;2023-04-24T07:51:14;100153.09;;;8.59;100.00
74529;BME280;63009;52.584;5.932;2023-04-24T07:53:39;100146.94;;;8.58;100.00
74529;BME280;63009;52.584;5.932;2023-04-24T07:56:05;100172.19;;;8.62;100.00
74529;BME280;63009;52.584;5.932;2023-04-24T07:58:30;100170.00;;;8.55;100.00
74529;BME280;63009;52.584;5.932;2023-04-24T08:00:55;100178.47;;;8.46;100.00
74529;BME280;63009;52.584;5.932;2023-04-24T08:03:20;100190.00;;;8.43;100.00
74529;BME280;63009;52.584;5.932;2023-04-24T08:05:46;100196.69;;;8.35;100.00
74529;BME280;63009;52.584;5.932;2023-04-24T08:08:12;100202.56;;;8.24;100.00
74529;BME280;63009;52.584;5.932;2023-04-24T08:10:37;100206.31;;;8.20;100.00
74529;BME280;63009;52.584;5.932;2023-04-24T08:13:02;100187.00;;;8.05;100.00
74529;BME280;63009;52.584;5.932;2023-04-24T08:15:27;100203.78;;;8.18;100.00
74529;BME280;63009;52.584;5.932;2023-04-24T08:17:53;100213.19;;;8.22;100.00
74529;BME280;63009;52.584;5.932;2023-04-24T08:20:18;100223.44;;;8.27;100.00
74529;BME280;63009;52.584;5.932;2023-04-24T08:22:43;100225.72;;;8.33;100.00
74529;BME280;63009;52.584;5.932;2023-04-24T08:25:10;100221.63;;;8.27;100.00
74529;BME280;63009;52.584;5.932;2023-04-24T08:27:36;100229.69;;;8.40;100.00
74529;BME280;63009;52.584;5.932;2023-04-24T08:30:02;100238.63;;;8.38;100.00
74529;BME280;63009;52.584;5.932;2023-04-24T08:32:28;100224.97;;;8.31;100.00
74529;BME280;63009;52.584;5.932;2023-04-24T08:34:54;100249.56;;;8.46;100.00
74529;BME280;63009;52.584;5.932;2023-04-24T08:37:21;100242.69;;;8.43;100.00
74529;BME280;63009;52.584;5.932;2023-04-24T08:39:47;100244.03;;;8.50;100.00
74529;BME280;63009;52.584;5.932;2023-04-24T08:42:12;100255.13;;;8.55;100.00
74529;BME280;63009;52.584;5.932;2023-04-24T08:44:40;100258.25;;;8.62;100.00
74529;BME280;63009;52.584;5.932;2023-04-24T08:47:07;100275.66;;;8.65;100.00
74529;BME280;63009;52.584;5.932;2023-04-24T08:49:33;100271.91;;;8.69;100.00
74529;BME280;63009;52.584;5.932;2023-04-24T08:52:01;100270.28;;;8.66;100.00
74529;BME280;63009;52.584;5.932;2023-04-24T08:54:26;100254.19;;;8.56;100.00
74529;BME280;63009;52.584;5.932;2023-04-24T08:56:53;100276.06;;;8.73;100.00
74529;BME280;63009;52.584;5.932;2023-04-24T08:59:22;100286.97;;;8.81;100.00
74529;BME280;63009;52.584;5.932;2023-04-24T09:01:48;100292.34;;;8.79;100.00
74529;BME280;63009;52.584;5.932;2023-04-24T09:04:15;100271.81;;;8.70;100.00
74529;BME280;63009;52.584;5.932;2023-04-24T09:06:41;100284.25;;;8.82;100.00
74529;BME280;63009;52.584;5.932;2023-04-24T09:09:08;100270.97;;;8.84;100.00
74529;BME280;63009;52.584;5.932;2023-04-24T09:11:33;100297.84;;;9.05;100.00
74529;BME280;63009;52.584;5.932;2023-04-24T09:13:58;100299.63;;;9.04;100.00
74529;BME280;63009;52.584;5.932;2023-04-24T09:16:25;100308.09;;;9.09;100.00
74529;BME280;63009;52.584;5.932;2023-04-24T09:18:51;100308.66;;;9.14;100.00
74529;BME280;63009;52.584;5.932;2023-04-24T09:21:17;100318.44;;;9.27;100.00
74529;BME280;63009;52.584;5.932;2023-04-24T09:23:42;100326.19;;;9.30;100.00
74529;BME280;63009;52.584;5.932;2023-04-24T09:26:09;100327.19;;;9.13;100.00
74529;BME280;63009;52.584;5.932;2023-04-24T09:28:36;100332.84;;;9.07;98.29
74529;BME280;63009;52.584;5.932;2023-04-24T09:31:14;100340.00;;;9.05;100.00
74529;BME280;63009;52.584;5.932;2023-04-24T09:33:53;100343.47;;;8.91;100.00
74529;BME280;63009;52.584;5.932;2023-04-24T09:36:27;100353.44;;;9.00;100.00
74529;BME280;63009;52.584;5.932;2023-04-24T09:38:55;100361.31;;;8.86;100.00
74529;BME280;63009;52.584;5.932;2023-04-24T09:41:22;100368.03;;;8.61;100.00
74529;BME280;63009;52.584;5.932;2023-04-24T09:43:47;100348.19;;;8.40;100.00
74529;BME280;63009;52.584;5.932;2023-04-24T09:46:12;100343.34;;;8.32;100.00
74529;BME280;63009;52.584;5.932;2023-04-24T09:48:38;100359.38;;;8.28;100.00
74529;BME280;63009;52.584;5.932;2023-04-24T09:51:05;100389.81;;;8.33;100.00
74529;BME280;63009;52.584;5.932;2023-04-24T09:53:32;100383.44;;;8.38;100.00
74529;BME280;63009;52.584;5.932;2023-04-24T09:56:15;100391.72;;;8.30;100.00
74529;BME280;63009;52.584;5.932;2023-04-24T09:58:41;100384.19;;;8.24;100.00
74529;BME280;63009;52.584;5.932;2023-04-24T10:01:06;100398.88;;;8.44;100.00
74529;BME280;63009;52.584;5.932;2023-04-24T10:03:33;100402.38;;;8.44;100.00
74529;BME280;63009;52.584;5.932;2023-04-24T10:06:02;100418.25;;;8.58;100.00
74529;BME280;63009;52.584;5.932;2023-04-24T10:08:34;100427.22;;;8.70;100.00
74529;BME280;63009;52.584;5.932;2023-04-24T10:11:00;100415.00;;;8.69;100.00
74529;BME280;63009;52.584;5.932;2023-04-24T10:13:26;100398.81;;;8.61;100.00
74529;BME280;63009;52.584;5.932;2023-04-24T10:15:52;100419.09;;;8.75;100.00
74529;BME280;63009;52.584;5.932;2023-04-24T10:18:17;100426.19;;;8.88;100.00
74529;BME280;63009;52.584;5.932;2023-04-24T10:20:43;100437.16;;;8.81;100.00
74529;BME280;63009;52.584;5.932;2023-04-24T10:23:09;100431.56;;;8.87;100.00
74529;BME280;63009;52.584;5.932;2023-04-24T10:25:36;100424.97;;;8.94;100.00
74529;BME280;63009;52.584;5.932;2023-04-24T10:28:02;100435.97;;;9.16;100.00
74529;BME280;63009;52.584;5.932;2023-04-24T10:30:30;100434.34;;;9.44;100.00
74529;BME280;63009;52.584;5.932;2023-04-24T10:32:57;100434.91;;;9.49;99.55
74529;BME280;63009;52.584;5.932;2023-04-24T10:35:22;100441.31;;;9.59;98.97
74529;BME280;63009;52.584;5.932;2023-04-24T10:37:57;100446.28;;;9.49;95.83
74529;BME280;63009;52.584;5.932;2023-04-24T10:40:30;100448.00;;;9.50;97.53
74529;BME280;63009;52.584;5.932;2023-04-24T10:42:56;100449.66;;;9.37;97.36
74529;BME280;63009;52.584;5.932;2023-04-24T10:45:22;100455.91;;;9.65;97.24
74529;BME280;63009;52.584;5.932;2023-04-24T10:47:58;100465.53;;;9.80;92.64
74529;BME280;63009;52.584;5.932;2023-04-24T10:50:26;100469.97;;;9.65;91.28
74529;BME280;63009;52.584;5.932;2023-04-24T10:52:52;100452.59;;;9.47;90.29
74529;BME280;63009;52.584;5.932;2023-04-24T10:55:52;100475.97;;;9.53;92.21
74529;BME280;63009;52.584;5.932;2023-04-24T10:58:23;100475.13;;;9.52;91.91
74529;BME280;63009;52.584;5.932;2023-04-24T11:00:59;100494.94;;;9.60;88.72
74529;BME280;63009;52.584;5.932;2023-04-24T11:03:30;100486.63;;;9.51;89.28
74529;BME280;63009;52.584;5.932;2023-04-24T11:06:02;100491.31;;;9.46;91.28
74529;BME280;63009;52.584;5.932;2023-04-24T11:08:36;100491.97;;;9.50;91.65
74529;BME280;63009;52.584;5.932;2023-04-24T11:11:16;100504.34;;;9.64;91.58
74529;BME280;63009;52.584;5.932;2023-04-24T11:16:31;100492.94;;;9.49;88.26
74529;BME280;63009;52.584;5.932;2023-04-24T11:22:01;100497.41;;;9.33;89.40
74529;BME280;63009;52.584;5.932;2023-04-24T11:24:48;100513.47;;;9.28;90.77
74529;BME280;63009;52.584;5.932;2023-04-24T11:27:19;100506.41;;;9.29;88.62
74529;BME280;63009;52.584;5.932;2023-04-24T11:37:21;100531.41;;;9.37;93.57
74529;BME280;63009;52.584;5.932;2023-04-24T11:39:50;100545.41;;;9.23;92.29
74529;BME280;63009;52.584;5.932;2023-04-24T11:42:15;100552.06;;;8.99;92.54
74529;BME280;63009;52.584;5.932;2023-04-24T11:44:41;100546.97;;;8.96;91.64
74529;BME280;63009;52.584;5.932;2023-04-24T11:47:08;100554.41;;;8.89;92.32
74529;BME280;63009;52.584;5.932;2023-04-24T11:49:33;100547.75;;;8.82;91.85
74529;BME280;63009;52.584;5.932;2023-04-24T11:52:01;100543.09;;;8.87;91.60
74529;BME280;63009;52.584;5.932;2023-04-24T11:54:27;100555.31;;;8.88;92.56
74529;BME280;63009;52.584;5.932;2023-04-24T11:56:52;100559.97;;;8.99;90.45
74529;BME280;63009;52.584;5.932;2023-04-24T11:59:17;100564.50;;;8.97;92.05
74529;BME280;63009;52.584;5.932;2023-04-24T12:01:46;100560.22;;;9.10;91.67
74529;BME280;63009;52.584;5.932;2023-04-24T12:04:12;100565.84;;;9.20;91.63
74529;BME280;63009;52.584;5.932;2023-04-24T12:06:37;100571.78;;;9.23;92.56
74529;BME280;63009;52.584;5.932;2023-04-24T12:09:02;100572.88;;;9.35;91.87
74529;BME280;63009;52.584;5.932;2023-04-24T12:11:28;100562.59;;;9.31;89.53
74529;BME280;63009;52.584;5.932;2023-04-24T12:13:54;100539.47;;;9.20;91.80
74529;BME280;63009;52.584;5.932;2023-04-24T12:16:20;100549.91;;;9.21;92.63
74529;BME280;63009;52.584;5.932;2023-04-24T12:18:45;100562.69;;;9.29;92.29
74529;BME280;63009;52.584;5.932;2023-04-24T12:21:22;100568.91;;;9.42;92.81
74529;BME280;63009;52.584;5.932;2023-04-24T12:23:48;100570.03;;;9.68;94.31
74529;BME280;63009;52.584;5.932;2023-04-24T12:26:20;100562.91;;;9.85;88.31
74529;BME280;63009;52.584;5.932;2023-04-24T12:28:47;100574.84;;;10.06;88.42
74529;BME280;63009;52.584;5.932;2023-04-24T12:31:14;100565.56;;;9.99;85.68
74529;BME280;63009;52.584;5.932;2023-04-24T12:33:40;100589.06;;;10.03;86.36
74529;BME280;63009;52.584;5.932;2023-04-24T12:36:05;100567.53;;;9.81;85.64
74529;BME280;63009;52.584;5.932;2023-04-24T12:38:31;100576.06;;;9.70;84.09
74529;BME280;63009;52.584;5.932;2023-04-24T12:41:06;100586.00;;;9.51;83.56
74529;BME280;63009;52.584;5.932;2023-04-24T12:43:32;100569.09;;;9.39;85.11
74529;BME280;63009;52.584;5.932;2023-04-24T12:45:57;100600.56;;;9.42;86.10
74529;BME280;63009;52.584;5.932;2023-04-24T12:48:24;100606.81;;;9.26;85.34
74529;BME280;63009;52.584;5.932;2023-04-24T12:50:50;100596.19;;;9.11;84.07
74529;BME280;63009;52.584;5.932;2023-04-24T12:53:15;100604.28;;;9.08;85.76
74529;BME280;63009;52.584;5.932;2023-04-24T12:55:41;100596.56;;;9.05;85.90
74529;BME280;63009;52.584;5.932;2023-04-24T12:58:07;100628.25;;;9.19;85.90
74529;BME280;63009;52.584;5.932;2023-04-24T13:00:32;100617.19;;;9.29;87.81
74529;BME280;63009;52.584;5.932;2023-04-24T13:02:58;100627.88;;;9.41;85.38
74529;BME280;63009;52.584;5.932;2023-04-24T13:05:23;100627.88;;;9.57;85.75